Lowder, IL (62662)

6:52 PM CDT on August 29, 2015 (GMT -0500)
Royell Weather Station | | Change Station
CLOSE
Current Station
Personal Weather Station
Location: Virden, IL
Elevation: 676 ft
Nearby Weather Stations

Elev 676 ft 39.50 °N, 89.77 °W | Updated 17 seconds ago

Partly Cloudy
Partly Cloudy
79.3 °F
Feels Like 82 °F
N
2.0
Wind Variable Wind from SSE
Gusts 5.0 mph

Today
High -- | Low -- °F
--% Chance of Precip.
Yesterday
High -- | Low -- °F
Precip. -- in
6:24 AM 7:35 PM
Full, 100% visible
Pressure 29.97 in
Visibility 10.0 miles
Clouds Scattered Clouds 11000 ft
Heat Index 82 °F
Dew Point 71 °F
Humidity 75%
Rainfall 0.07 in
Snow Depth Not available.
UV 1 out of 12
Pollen 7.40 out of 12
Air Quality Not available.
Flu Activity Not available.
METAR KSPI 292252Z 21006KT 10SM SCT110 27/19 A2998 RMK AO2 SLP148 T02720189
Pressure 29.97 in
Visibility 10.0 miles
Clouds Scattered Clouds 11000 ft
Heat Index 82 °F
Dew Point 71 °F
Humidity 75%
Rainfall 0.07 in
Snow Depth Not available.
UV 1 out of 12
Pollen 7.40 out of 12
Air Quality Not available.
Flu Activity Not available.
METAR KSPI 292252Z 21006KT 10SM SCT110 27/19 A2998 RMK AO2 SLP148 T02720189

10-Day Weather Forecast

×

Almanac

Astronomy

Aug. 29, 2015 Rise Set
Actual Time
Civil Twilight
Nautical Twilight
Astronomical Twilight
Moon
Length of Visible Light
Length of Day
Tomorrow will be .
, % of the Moon is Illuminated

Today's Extremes

State Highs State Lows

Community

WunderPhotos

Upload Photos

1,850,784 photos uploaded!

WunderBlogs® & News

Nearby

Air Quality

  Air Quality AQ Index Pollutant
Not available.

Snow Depth

Station Depth Elevation

Earthquake Activity

City Distance Mag. Time & Date
Minimum magnitude displayed is 2.5.

Coastal Water Temperatures

Place Temperature

Stations

Nearby Weather Stations

Station Location Temp. Windchill Dew Point Humidity Wind Precip. Elev Updated Type